Time;durP1;ratioP1;P1;durP2;ratioP2;P2;SDS_P1;SDS_P2;PMS_P1;PMS_P2;Temp;Humidity;BMP_temperature;BMP_pressure;BME280_temperature;BME280_humidity;BME280_pressure;Samples;Min_cycle;Max_cycle;Signal;HPM_P1;HPM_P2
2024/02/29 00:00:12;;;;;;;22.35;8.48;;;8.10;99.90;;;;;;5052800;28;20028;-40
2024/02/29 00:02:39;;;;;;;18.58;7.97;;;8.10;99.90;;;;;;5034627;28;20445;-40
2024/02/29 00:05:06;;;;;;;17.63;8.35;;;8.10;99.90;;;;;;5032673;28;20555;-43
2024/02/29 00:07:31;;;;;;;18.13;8.07;;;8.10;99.90;;;;;;5032790;28;20058;-41
2024/02/29 00:09:58;;;;;;;12.30;7.80;;;8.10;99.90;;;;;;5042410;28;20505;-52
2024/02/29 00:12:24;;;;;;;21.90;7.78;;;8.00;99.90;;;;;;5050510;28;20500;-55
2024/02/29 00:14:51;;;;;;;15.02;8.05;;;8.10;99.90;;;;;;5052611;28;20029;-64
2024/02/29 00:17:17;;;;;;;17.45;7.50;;;8.10;99.90;;;;;;5049726;28;20082;-56
2024/02/29 00:19:43;;;;;;;15.75;8.23;;;8.10;99.90;;;;;;5052811;28;20477;-54
2024/02/29 00:22:09;;;;;;;20.60;7.93;;;8.00;99.90;;;;;;5035191;28;20035;-54
2024/02/29 00:24:35;;;;;;;18.45;7.40;;;8.10;99.90;;;;;;5032789;28;20484;-54
2024/02/29 00:27:01;;;;;;;18.92;7.47;;;8.00;99.90;;;;;;5047843;28;20017;-55
2024/02/29 00:29:28;;;;;;;19.05;8.88;;;8.00;99.90;;;;;;5039455;28;20072;-57
2024/02/29 00:32:00;;;;;;;18.40;8.32;;;8.00;99.90;;;;;;5032378;28;20018;-54
2024/02/29 00:34:27;;;;;;;16.30;8.50;;;8.00;99.90;;;;;;5034655;28;20068;-56
2024/02/29 00:36:53;;;;;;;22.52;7.45;;;8.00;99.90;;;;;;5052561;28;20539;-53
2024/02/29 00:39:19;;;;;;;16.77;7.97;;;7.90;99.90;;;;;;5042489;28;20022;-55
2024/02/29 00:41:44;;;;;;;14.18;7.68;;;7.80;99.90;;;;;;5038651;28;20439;-56
2024/02/29 00:44:10;;;;;;;16.08;7.25;;;7.80;99.90;;;;;;5033062;28;20024;-55
2024/02/29 00:46:39;;;;;;;16.05;7.85;;;7.90;99.90;;;;;;5032390;28;20022;-55
2024/02/29 00:49:05;;;;;;;21.55;7.43;;;7.90;99.90;;;;;;5032155;28;20033;-55
2024/02/29 00:51:31;;;;;;;14.13;8.00;;;7.90;99.90;;;;;;5030932;28;20025;-48
2024/02/29 00:53:57;;;;;;;16.83;7.70;;;7.90;99.90;;;;;;5032278;28;20033;-40
2024/02/29 00:56:23;;;;;;;17.63;8.07;;;7.90;99.90;;;;;;5032365;28;20426;-38
2024/02/29 00:58:49;;;;;;;21.40;8.00;;;8.00;99.90;;;;;;5032172;28;20031;-39
2024/02/29 01:01:15;;;;;;;20.20;7.80;;;8.00;99.90;;;;;;5031489;28;20393;-40
2024/02/29 01:03:41;;;;;;;20.98;7.95;;;8.00;99.90;;;;;;5032124;28;20017;-40
2024/02/29 01:06:07;;;;;;;19.13;8.13;;;7.90;99.90;;;;;;5032793;28;20039;-38
2024/02/29 01:08:32;;;;;;;15.23;7.60;;;8.00;99.90;;;;;;5045522;28;20021;-38
2024/02/29 01:10:58;;;;;;;19.00;7.28;;;8.00;99.90;;;;;;5043051;28;20486;-39
2024/02/29 01:13:24;;;;;;;13.40;6.57;;;7.90;99.90;;;;;;5035808;28;20041;-48
2024/02/29 01:15:50;;;;;;;15.48;6.82;;;7.90;99.90;;;;;;5040754;28;20025;-39
2024/02/29 01:18:16;;;;;;;17.20;8.20;;;7.90;99.90;;;;;;5054794;28;20378;-40
2024/02/29 01:20:42;;;;;;;16.15;7.78;;;7.90;99.90;;;;;;5045921;28;20083;-40
2024/02/29 01:23:07;;;;;;;12.68;6.88;;;7.90;99.90;;;;;;5046032;28;20083;-41
2024/02/29 01:25:33;;;;;;;17.02;7.60;;;7.90;99.90;;;;;;5040990;28;20351;-40
2024/02/29 01:27:59;;;;;;;15.15;6.95;;;8.00;99.90;;;;;;5054588;28;20048;-42
2024/02/29 01:30:24;;;;;;;16.55;6.90;;;8.00;99.90;;;;;;5035406;28;20021;-40
2024/02/29 01:32:50;;;;;;;14.57;7.22;;;7.90;99.90;;;;;;5035354;28;20021;-40
2024/02/29 01:35:15;;;;;;;14.55;6.72;;;7.90;99.90;;;;;;5035645;28;20025;-39
2024/02/29 01:37:42;;;;;;;13.95;7.15;;;7.90;99.90;;;;;;5035253;28;20028;-39
2024/02/29 01:40:08;;;;;;;17.63;7.80;;;7.90;99.90;;;;;;5037603;28;20028;-41
2024/02/29 01:42:33;;;;;;;21.48;7.45;;;7.90;99.90;;;;;;5048869;28;20499;-40
2024/02/29 01:44:59;;;;;;;17.33;7.28;;;7.90;99.90;;;;;;5038702;28;20029;-38
2024/02/29 01:47:26;;;;;;;15.93;7.15;;;7.90;99.90;;;;;;5035169;28;20030;-40
2024/02/29 01:49:56;;;;;;;20.60;7.82;;;7.80;99.90;;;;;;5043079;28;20026;-40
2024/02/29 01:52:25;;;;;;;14.40;7.32;;;7.90;99.90;;;;;;5035930;28;20025;-39
2024/02/29 01:54:50;;;;;;;22.60;7.53;;;7.80;99.90;;;;;;5034937;28;20356;-40
2024/02/29 01:57:16;;;;;;;23.80;7.97;;;7.80;99.90;;;;;;5034996;28;20030;-39
2024/02/29 01:59:44;;;;;;;15.35;7.13;;;7.80;99.90;;;;;;5034916;28;20449;-39
2024/02/29 02:02:10;;;;;;;13.95;6.82;;;7.80;99.90;;;;;;5034818;28;20134;-39
2024/02/29 02:04:35;;;;;;;31.30;8.73;;;7.90;99.90;;;;;;5034380;28;20438;-41
2024/02/29 02:07:03;;;;;;;17.33;7.32;;;7.90;99.90;;;;;;5034223;28;20030;-39
2024/02/29 02:09:29;;;;;;;16.67;8.23;;;7.90;99.90;;;;;;5035348;28;20025;-40
2024/02/29 02:11:55;;;;;;;19.58;6.82;;;8.00;99.90;;;;;;5041675;28;20390;-39
2024/02/29 02:14:22;;;;;;;19.52;6.68;;;8.00;99.90;;;;;;5054628;28;20024;-39
2024/02/29 02:16:48;;;;;;;19.33;7.72;;;8.00;99.90;;;;;;5051308;28;20040;-39
2024/02/29 02:19:16;;;;;;;16.25;7.57;;;8.00;99.90;;;;;;5034580;28;20021;-39
2024/02/29 02:21:43;;;;;;;15.90;6.82;;;8.00;99.90;;;;;;5034907;28;20022;-39
2024/02/29 02:24:09;;;;;;;17.90;7.45;;;8.00;99.90;;;;;;5034818;28;20494;-38
2024/02/29 02:26:34;;;;;;;17.98;7.47;;;7.90;99.90;;;;;;5034983;28;20486;-39
2024/02/29 02:29:02;;;;;;;16.30;7.28;;;8.00;99.90;;;;;;5043271;28;20045;-38
2024/02/29 02:31:29;;;;;;;17.80;7.47;;;8.00;99.90;;;;;;5054385;28;20098;-37
2024/02/29 02:33:55;;;;;;;23.85;8.10;;;8.00;99.90;;;;;;5054460;28;20036;-38
2024/02/29 02:36:21;;;;;;;21.27;8.27;;;8.00;99.90;;;;;;5051564;28;20473;-39
2024/02/29 02:38:47;;;;;;;18.50;7.38;;;8.00;99.90;;;;;;5054149;28;20025;-40
2024/02/29 02:41:13;;;;;;;17.27;7.35;;;8.00;99.90;;;;;;5038494;28;20444;-38
2024/02/29 02:43:38;;;;;;;19.85;7.35;;;8.00;99.90;;;;;;5034720;28;20061;-46
2024/02/29 02:46:04;;;;;;;15.02;6.88;;;8.00;99.90;;;;;;5033814;28;20036;-39
2024/02/29 02:48:30;;;;;;;18.73;6.85;;;8.00;99.90;;;;;;5033995;28;20025;-40
2024/02/29 02:50:55;;;;;;;14.00;7.85;;;8.10;99.90;;;;;;5040431;28;20029;-42
2024/02/29 02:53:21;;;;;;;18.15;8.10;;;8.10;99.90;;;;;;5052729;28;20024;-38
2024/02/29 02:55:47;;;;;;;18.88;7.35;;;8.10;99.90;;;;;;5052831;28;20032;-39
2024/02/29 02:58:12;;;;;;;16.42;8.10;;;8.10;99.90;;;;;;5053808;28;20029;-40
2024/02/29 03:00:38;;;;;;;17.58;8.00;;;8.10;99.90;;;;;;5037243;28;20116;-39
2024/02/29 03:03:04;;;;;;;19.40;8.25;;;8.10;99.90;;;;;;5033995;28;20033;-43
2024/02/29 03:05:30;;;;;;;21.80;7.75;;;8.10;99.90;;;;;;5032246;28;20057;-39
2024/02/29 03:07:55;;;;;;;22.88;7.93;;;8.10;99.90;;;;;;5033657;28;20029;-42
2024/02/29 03:10:21;;;;;;;22.92;7.78;;;8.10;99.90;;;;;;5036260;28;20374;-38
2024/02/29 03:12:48;;;;;;;20.38;7.97;;;8.10;99.90;;;;;;5053486;28;20017;-39
2024/02/29 03:15:15;;;;;;;19.27;8.33;;;8.10;99.90;;;;;;5053686;28;20052;-39
2024/02/29 03:17:41;;;;;;;21.25;7.40;;;8.10;99.90;;;;;;5051257;28;20268;-39
2024/02/29 03:20:12;;;;;;;18.05;7.30;;;8.00;99.90;;;;;;5052512;28;20120;-39
2024/02/29 03:22:39;;;;;;;16.48;7.72;;;8.00;99.90;;;;;;5053631;28;20031;-55
2024/02/29 03:25:04;;;;;;;13.63;5.53;;;7.90;99.90;;;;;;5046014;28;20029;-56
2024/02/29 03:27:30;;;;;;;14.25;7.60;;;7.80;99.90;;;;;;5033368;28;20397;-54
2024/02/29 03:29:58;;;;;;;21.75;7.15;;;7.80;99.90;;;;;;5048587;28;20031;-55
2024/02/29 03:32:23;;;;;;;17.15;7.97;;;7.80;99.90;;;;;;5053201;28;20494;-55
2024/02/29 03:34:49;;;;;;;18.98;8.65;;;7.80;99.90;;;;;;5052356;28;20100;-55
2024/02/29 03:37:15;;;;;;;24.08;7.65;;;7.80;99.90;;;;;;5049268;28;20504;-55
2024/02/29 03:39:40;;;;;;;18.05;7.82;;;7.70;99.90;;;;;;5032876;28;20547;-55
2024/02/29 03:42:06;;;;;;;16.42;7.78;;;7.70;99.90;;;;;;5033256;28;20514;-40
2024/02/29 03:44:32;;;;;;;20.50;8.68;;;7.70;99.90;;;;;;5033011;28;20111;-39
2024/02/29 03:46:57;;;;;;;16.38;7.25;;;7.60;99.90;;;;;;5032858;28;20033;-44
2024/02/29 03:49:23;;;;;;;20.38;7.95;;;7.60;99.90;;;;;;5032908;28;20021;-40
2024/02/29 03:51:49;;;;;;;17.77;8.68;;;7.60;99.90;;;;;;5033538;28;20115;-55
2024/02/29 03:54:15;;;;;;;19.00;8.23;;;7.60;99.90;;;;;;5043987;28;20382;-44
2024/02/29 03:56:40;;;;;;;17.55;8.63;;;7.60;99.90;;;;;;5036038;28;20032;-57
2024/02/29 03:59:06;;;;;;;18.17;7.72;;;7.60;99.90;;;;;;5032845;28;20029;-44
2024/02/29 04:01:31;;;;;;;22.38;8.23;;;7.60;99.90;;;;;;5035861;28;20012;-40
2024/02/29 04:03:57;;;;;;;23.30;9.18;;;7.60;99.90;;;;;;5041594;28;20025;-38
2024/02/29 04:06:23;;;;;;;18.33;7.53;;;7.60;99.90;;;;;;5052302;28;20075;-39
2024/02/29 04:08:48;;;;;;;23.38;8.45;;;7.50;99.90;;;;;;5050702;28;20363;-40
2024/02/29 04:11:14;;;;;;;25.55;8.15;;;7.60;99.90;;;;;;5050921;28;20047;-37
2024/02/29 04:13:39;;;;;;;24.80;8.43;;;7.60;99.90;;;;;;5052534;28;20429;-38
2024/02/29 04:16:05;;;;;;;17.75;8.77;;;7.60;99.90;;;;;;5052478;28;20055;-38
2024/02/29 04:18:31;;;;;;;15.35;7.90;;;7.60;99.90;;;;;;5051208;28;20029;-39
2024/02/29 04:20:56;;;;;;;20.35;8.10;;;7.60;99.90;;;;;;5032795;28;20037;-38
2024/02/29 04:23:22;;;;;;;17.85;7.90;;;7.60;99.90;;;;;;5032616;28;20086;-54
2024/02/29 04:25:48;;;;;;;14.57;7.22;;;7.60;99.90;;;;;;5032922;28;20120;-56
2024/02/29 04:28:14;;;;;;;18.48;8.20;;;7.60;99.90;;;;;;5034915;28;20408;-53
2024/02/29 04:30:42;;;;;;;16.38;7.72;;;7.60;99.90;;;;;;5050312;28;20066;-55
2024/02/29 04:33:07;;;;;;;;;;;7.60;99.90;;;;;;5052778;28;20024;-55
2024/02/29 04:35:33;;;;;;;19.42;7.57;;;7.60;99.90;;;;;;5040787;28;20281;-56
2024/02/29 04:37:59;;;;;;;17.75;8.40;;;7.60;99.90;;;;;;5032681;28;20022;-56
2024/02/29 04:40:26;;;;;;;19.05;9.02;;;7.60;99.90;;;;;;5032251;28;20040;-56
2024/02/29 04:42:52;;;;;;;20.15;9.15;;;7.60;99.90;;;;;;5037249;28;20374;-56
2024/02/29 04:45:18;;;;;;;23.77;9.15;;;7.60;99.90;;;;;;5036240;28;20532;-53
2024/02/29 04:47:44;;;;;;;19.55;8.65;;;7.50;99.90;;;;;;5036329;28;20061;-41
2024/02/29 04:50:09;;;;;;;23.25;8.55;;;7.60;99.90;;;;;;5036055;28;20037;-55
2024/02/29 04:52:35;;;;;;;18.65;8.30;;;7.60;99.90;;;;;;5036305;28;20041;-39
2024/02/29 04:55:01;;;;;;;20.63;8.82;;;7.60;99.90;;;;;;5036061;28;20040;-41
2024/02/29 04:57:27;;;;;;;22.40;9.30;;;7.60;99.90;;;;;;5034739;28;20397;-39
2024/02/29 04:59:52;;;;;;;20.30;8.27;;;7.60;99.90;;;;;;5037655;28;20104;-39
2024/02/29 05:02:18;;;;;;;20.60;7.93;;;7.60;99.90;;;;;;5036323;28;20437;-38
2024/02/29 05:04:44;;;;;;;23.83;9.70;;;7.60;99.90;;;;;;5035784;28;20034;-39
2024/02/29 05:07:10;;;;;;;17.50;9.35;;;7.60;99.90;;;;;;5036134;28;20018;-39
2024/02/29 05:09:36;;;;;;;22.55;9.05;;;7.70;99.90;;;;;;5034532;28;20474;-39
2024/02/29 05:12:02;;;;;;;21.05;9.40;;;7.70;99.90;;;;;;5035808;28;20041;-40
2024/02/29 05:14:28;;;;;;;19.88;9.40;;;7.60;99.90;;;;;;5035842;28;20383;-39
2024/02/29 05:16:53;;;;;;;18.67;8.10;;;7.60;99.90;;;;;;5036360;28;20021;-39
2024/02/29 05:19:19;;;;;;;20.20;8.75;;;7.60;99.90;;;;;;5035626;28;20513;-38
2024/02/29 05:21:45;;;;;;;18.95;8.27;;;7.60;99.90;;;;;;5035702;28;20128;-38
2024/02/29 05:24:11;;;;;;;22.70;9.05;;;7.60;99.90;;;;;;5035378;28;20022;-38
2024/02/29 05:26:37;;;;;;;18.38;9.40;;;7.70;99.90;;;;;;5036169;28;20024;-38
2024/02/29 05:29:03;;;;;;;16.20;8.60;;;7.70;99.90;;;;;;5041618;28;20448;-41
2024/02/29 05:31:30;;;;;;;25.70;11.17;;;7.70;99.90;;;;;;5035504;28;20041;-42
2024/02/29 05:33:56;;;;;;;19.58;8.38;;;7.80;99.90;;;;;;5036297;28;20026;-39
2024/02/29 05:36:22;;;;;;;19.38;8.77;;;7.80;99.90;;;;;;5035458;28;20037;-38
2024/02/29 05:38:50;;;;;;;22.38;8.25;;;7.80;99.90;;;;;;5035589;28;20105;-38
2024/02/29 05:41:17;;;;;;;24.40;8.98;;;7.80;99.90;;;;;;5055271;28;20029;-38
2024/02/29 05:43:43;;;;;;;20.07;7.90;;;7.80;99.90;;;;;;5055153;28;20482;-38
2024/02/29 05:46:09;;;;;;;18.30;8.30;;;7.80;99.90;;;;;;5055147;28;20028;-40
2024/02/29 05:48:37;;;;;;;17.48;9.27;;;7.70;99.90;;;;;;5051545;28;20100;-40
2024/02/29 05:51:03;;;;;;;22.42;7.22;;;7.80;99.90;;;;;;5053362;28;20033;-39
2024/02/29 05:53:29;;;;;;;20.27;8.90;;;7.80;99.90;;;;;;5054195;28;20078;-39
2024/02/29 05:55:55;;;;;;;20.23;8.43;;;7.80;99.90;;;;;;5052971;28;20029;-40
2024/02/29 05:58:20;;;;;;;22.23;8.00;;;7.80;99.90;;;;;;5052835;28;20496;-41
2024/02/29 06:00:46;;;;;;;19.10;8.95;;;7.70;99.90;;;;;;5040707;28;20393;-39
2024/02/29 06:03:12;;;;;;;23.58;8.70;;;7.70;99.90;;;;;;5054742;28;20052;-41
2024/02/29 06:05:38;;;;;;;18.60;8.15;;;7.80;99.90;;;;;;5055015;28;20029;-42
2024/02/29 06:08:04;;;;;;;17.88;7.78;;;7.80;99.90;;;;;;5053082;28;20021;-39
2024/02/29 06:10:30;;;;;;;21.08;8.05;;;7.80;99.90;;;;;;5054703;28;20017;-40
2024/02/29 06:12:56;;;;;;;21.40;8.43;;;7.80;99.90;;;;;;5054546;28;20021;-40
2024/02/29 06:15:22;;;;;;;23.42;8.50;;;7.90;99.90;;;;;;5054560;28;20032;-56
2024/02/29 06:17:49;;;;;;;22.63;8.73;;;7.90;99.90;;;;;;5054590;28;20025;-56
2024/02/29 06:20:15;;;;;;;22.57;7.93;;;7.80;99.90;;;;;;5034316;28;20037;-57
2024/02/29 06:22:41;;;;;;;17.00;8.18;;;7.90;99.90;;;;;;5034515;28;20820;-55
2024/02/29 06:25:09;;;;;;;16.77;7.45;;;7.90;99.90;;;;;;5034985;28;20389;-56
2024/02/29 06:27:36;;;;;;;16.02;7.40;;;7.90;99.90;;;;;;5048825;28;20045;-55
2024/02/29 06:30:04;;;;;;;19.95;7.90;;;7.90;99.90;;;;;;5036731;28;20029;-55
2024/02/29 06:32:29;;;;;;;18.27;7.72;;;8.00;99.90;;;;;;5034385;28;20036;-56
2024/02/29 06:34:55;;;;;;;23.83;7.97;;;7.90;99.90;;;;;;5034313;28;20021;-57
2024/02/29 06:37:21;;;;;;;17.40;8.30;;;7.90;99.90;;;;;;5032898;28;20584;-56
2024/02/29 06:39:47;;;;;;;23.17;8.55;;;7.90;99.90;;;;;;5034246;28;20427;-56
2024/02/29 06:42:13;;;;;;;19.38;8.27;;;7.80;99.90;;;;;;5034603;28;20024;-57
2024/02/29 06:44:38;;;;;;;19.65;8.10;;;7.90;99.90;;;;;;5033930;28;20025;-54
2024/02/29 06:47:04;;;;;;;20.35;7.20;;;7.90;99.90;;;;;;5034007;28;20029;-54
2024/02/29 06:49:30;;;;;;;18.83;7.88;;;7.90;99.90;;;;;;5034047;28;20022;-57
2024/02/29 06:51:56;;;;;;;21.30;7.80;;;7.90;99.90;;;;;;5033962;28;20470;-55
2024/02/29 06:54:22;;;;;;;19.42;7.85;;;7.90;99.90;;;;;;5034111;28;20472;-58
2024/02/29 06:56:48;;;;;;;18.02;8.05;;;7.90;99.90;;;;;;5034275;28;20025;-54
2024/02/29 06:59:13;;;;;;;18.38;8.23;;;7.90;99.90;;;;;;5033918;28;20029;-56
2024/02/29 07:01:39;;;;;;;19.02;8.85;;;8.00;99.90;;;;;;5033710;28;20297;-55
2024/02/29 07:04:06;;;;;;;17.58;7.90;;;8.00;99.90;;;;;;5031417;28;20132;-55
2024/02/29 07:06:32;;;;;;;16.35;7.72;;;8.10;99.90;;;;;;5033820;28;20025;-56
2024/02/29 07:08:58;;;;;;;17.88;8.23;;;8.10;99.90;;;;;;5033873;28;20021;-55
2024/02/29 07:11:25;;;;;;;13.38;6.85;;;8.10;99.90;;;;;;5033607;28;20029;-41
2024/02/29 07:13:51;;;;;;;15.75;7.65;;;8.10;99.90;;;;;;5034153;28;20032;-42
2024/02/29 07:16:20;;;;;;;24.15;7.53;;;8.10;99.90;;;;;;5033439;28;20462;-41
2024/02/29 07:18:45;;;;;;;17.60;7.20;;;8.10;99.90;;;;;;5033436;28;20037;-43
2024/02/29 07:21:11;;;;;;;16.65;7.60;;;8.10;99.90;;;;;;5033162;28;20025;-39
2024/02/29 07:23:37;;;;;;;17.98;8.82;;;8.20;99.90;;;;;;5033287;28;20029;-39
2024/02/29 07:26:03;;;;;;;22.38;7.00;;;8.20;99.90;;;;;;5031985;28;20113;-38
2024/02/29 07:28:30;;;;;;;16.25;7.07;;;8.20;99.90;;;;;;5031844;28;20300;-41
2024/02/29 07:30:56;;;;;;;16.10;8.25;;;8.30;99.90;;;;;;5034878;28;20021;-45
2024/02/29 07:33:22;;;;;;;20.92;7.20;;;8.20;99.90;;;;;;5032909;28;20018;-41
2024/02/29 07:35:48;;;;;;;14.70;7.43;;;8.30;99.90;;;;;;5033687;28;20501;-40
2024/02/29 07:38:14;;;;;;;15.63;7.05;;;8.30;99.90;;;;;;5034139;28;20059;-42
2024/02/29 07:40:40;;;;;;;16.95;7.13;;;8.30;99.90;;;;;;5032911;28;20092;-41
2024/02/29 07:43:06;;;;;;;13.13;6.35;;;8.20;99.90;;;;;;5033189;28;20025;-39
2024/02/29 07:45:32;;;;;;;15.75;7.15;;;8.20;99.90;;;;;;5051122;28;20534;-43
2024/02/29 07:47:57;;;;;;;20.58;7.72;;;8.30;99.90;;;;;;5052026;28;20107;-40
2024/02/29 07:50:23;;;;;;;15.23;6.78;;;8.30;99.90;;;;;;5044156;28;20111;-40
2024/02/29 07:52:49;;;;;;;17.23;7.18;;;8.30;99.90;;;;;;5031465;28;20028;-43
2024/02/29 07:55:16;;;;;;;13.65;7.03;;;8.30;99.90;;;;;;5032693;28;20148;-40
2024/02/29 07:57:43;;;;;;;16.77;6.78;;;8.30;99.90;;;;;;5032960;28;20459;-39
2024/02/29 08:00:10;;;;;;;19.30;8.20;;;8.30;99.90;;;;;;5031472;28;20014;-45
2024/02/29 08:02:36;;;;;;;15.35;7.00;;;8.30;99.90;;;;;;5039836;28;20521;-41
2024/02/29 08:05:02;;;;;;;15.82;7.65;;;8.30;99.90;;;;;;5041153;28;20030;-40
2024/02/29 08:07:29;;;;;;;19.95;7.95;;;8.30;99.90;;;;;;5032719;28;20029;-41
2024/02/29 08:09:54;;;;;;;13.30;6.97;;;8.30;99.90;;;;;;5038733;28;20041;-45
2024/02/29 08:12:20;;;;;;;16.38;7.63;;;8.30;99.90;;;;;;5052219;28;20059;-43
2024/02/29 08:14:46;;;;;;;14.10;6.97;;;8.30;99.90;;;;;;5051164;28;20025;-39
2024/02/29 08:17:12;;;;;;;13.98;6.68;;;8.30;99.90;;;;;;5032563;28;20033;-39
2024/02/29 08:19:38;;;;;;;18.00;7.13;;;8.30;99.90;;;;;;5032412;28;20163;-40
2024/02/29 08:22:03;;;;;;;21.75;8.18;;;8.30;99.90;;;;;;5039009;28;20041;-41
2024/02/29 08:24:30;;;;;;;14.32;7.00;;;8.30;99.90;;;;;;5046607;28;20049;-39
2024/02/29 08:26:55;;;;;;;14.38;7.38;;;8.40;99.90;;;;;;5032318;28;20021;-40
2024/02/29 08:29:21;;;;;;;13.98;7.47;;;8.40;99.90;;;;;;5035478;28;20090;-40
2024/02/29 08:31:47;;;;;;;13.90;7.20;;;8.40;99.90;;;;;;5049302;28;20072;-52
2024/02/29 08:34:12;;;;;;;18.17;8.30;;;8.50;99.90;;;;;;5043401;28;20549;-52
2024/02/29 08:36:38;;;;;;;15.05;7.13;;;8.60;99.90;;;;;;5052586;28;20096;-56
2024/02/29 08:39:04;;;;;;;15.15;7.05;;;8.60;99.90;;;;;;5048491;28;20289;-55
2024/02/29 08:41:29;;;;;;;16.55;6.75;;;8.70;99.90;;;;;;5052268;28;20025;-55
2024/02/29 08:43:55;;;;;;;19.63;7.05;;;8.60;99.90;;;;;;5051687;28;20040;-53
2024/02/29 08:46:20;;;;;;;21.80;7.68;;;8.70;99.90;;;;;;5052113;28;20159;-55
2024/02/29 08:48:47;;;;;;;15.40;7.65;;;8.60;99.90;;;;;;5046159;28;20342;-54
2024/02/29 08:51:12;;;;;;;13.38;6.25;;;8.60;99.90;;;;;;5032226;28;20018;-54
2024/02/29 08:53:41;;;;;;;19.45;6.53;;;8.60;99.90;;;;;;5032023;28;20035;-56
2024/02/29 08:56:06;;;;;;;14.65;6.43;;;8.60;99.90;;;;;;5032725;28;20767;-54
2024/02/29 08:58:32;;;;;;;14.57;7.65;;;8.60;99.90;;;;;;5031963;28;20080;-55
2024/02/29 09:00:58;;;;;;;15.73;6.63;;;8.60;99.90;;;;;;5032185;28;20061;-52
2024/02/29 09:03:23;;;;;;;16.20;6.45;;;8.60;99.90;;;;;;5049603;28;20033;-54
2024/02/29 09:05:50;;;;;;;13.85;7.07;;;8.60;99.90;;;;;;5051210;28;20059;-54
2024/02/29 09:08:15;;;;;;;18.10;8.00;;;8.70;99.90;;;;;;5052046;28;20021;-51
2024/02/29 09:10:41;;;;;;;12.00;6.43;;;8.60;99.90;;;;;;5037562;28;20465;-51
2024/02/29 09:13:07;;;;;;;14.80;6.63;;;8.60;99.90;;;;;;5031609;28;20083;-53
2024/02/29 09:15:33;;;;;;;18.30;7.30;;;8.60;99.90;;;;;;5032017;28;20032;-55
2024/02/29 09:18:01;;;;;;;20.90;7.55;;;8.60;99.90;;;;;;5046037;28;20067;-56
2024/02/29 09:20:26;;;;;;;18.67;6.53;;;8.70;99.90;;;;;;5052192;28;20025;-58
2024/02/29 09:22:52;;;;;;;12.80;6.25;;;8.70;99.90;;;;;;5051770;28;20121;-53
2024/02/29 09:25:18;;;;;;;13.45;6.20;;;8.70;99.90;;;;;;5033439;28;20493;-52
2024/02/29 09:27:46;;;;;;;10.45;5.97;;;8.70;99.90;;;;;;5033637;28;20053;-51
2024/02/29 09:30:13;;;;;;;15.25;6.93;;;8.80;99.90;;;;;;5036045;28;20051;-54
2024/02/29 09:32:39;;;;;;;23.52;7.05;;;8.70;99.90;;;;;;5035616;28;20017;-54
2024/02/29 09:35:05;;;;;;;17.35;7.30;;;8.70;99.90;;;;;;5035676;28;20597;-52
2024/02/29 09:37:31;;;;;;;12.05;6.75;;;8.70;99.90;;;;;;5035551;28;20030;-53
2024/02/29 09:39:56;;;;;;;12.10;6.22;;;8.70;99.90;;;;;;5042663;28;20425;-53
2024/02/29 09:42:26;;;;;;;13.40;7.00;;;8.70;99.90;;;;;;5045634;28;20060;-54
2024/02/29 09:44:52;;;;;;;12.98;6.88;;;8.70;99.90;;;;;;5045091;28;20490;-53
2024/02/29 09:47:20;;;;;;;14.18;6.78;;;8.70;99.90;;;;;;5038139;28;20013;-54
2024/02/29 09:49:50;;;;;;;12.70;6.95;;;8.80;99.90;;;;;;5037784;28;20021;-54
2024/02/29 09:52:15;;;;;;;14.30;7.03;;;8.80;99.90;;;;;;5035389;28;20072;-53
2024/02/29 09:54:41;;;;;;;12.45;7.22;;;8.80;99.90;;;;;;5055009;28;20024;-57
2024/02/29 09:57:10;;;;;;;19.27;7.28;;;8.80;99.90;;;;;;5052235;28;20086;-54
2024/02/29 09:59:41;;;;;;;16.55;7.28;;;8.80;99.90;;;;;;5038443;28;20095;-53
2024/02/29 10:02:15;;;;;;;13.48;5.93;;;8.80;99.90;;;;;;5042617;28;20013;-54
2024/02/29 10:04:41;;;;;;;21.88;6.82;;;8.80;99.90;;;;;;5052934;28;20028;-54
2024/02/29 10:07:07;;;;;;;18.15;7.00;;;8.90;99.90;;;;;;5044419;28;20474;-50
2024/02/29 10:09:33;;;;;;;17.02;6.63;;;8.90;99.90;;;;;;5048092;28;20021;-54
2024/02/29 10:11:59;;;;;;;11.48;6.72;;;8.90;99.90;;;;;;5054403;28;20498;-55
2024/02/29 10:14:26;;;;;;;18.95;6.50;;;8.90;99.90;;;;;;5050486;28;20025;-54
2024/02/29 10:16:52;;;;;;;14.57;5.68;;;8.90;99.90;;;;;;5050580;28;20033;-55
2024/02/29 10:19:19;;;;;;;14.02;6.93;;;8.90;99.90;;;;;;5054541;28;20500;-53
2024/02/29 10:21:45;;;;;;;11.45;6.90;;;9.00;99.90;;;;;;5050531;28;20025;-51
2024/02/29 10:24:11;;;;;;;17.35;7.22;;;9.00;99.90;;;;;;5035146;28;20473;-54
2024/02/29 10:26:37;;;;;;;14.68;6.43;;;9.10;99.90;;;;;;5034273;28;20032;-51
2024/02/29 10:29:09;;;;;;;14.15;6.80;;;9.10;99.90;;;;;;5035893;28;20490;-53
2024/02/29 10:31:35;;;;;;;20.95;7.18;;;9.00;99.90;;;;;;5035458;28;20083;-52
2024/02/29 10:34:01;;;;;;;13.88;6.72;;;9.10;99.90;;;;;;5034233;28;20021;-51
2024/02/29 10:36:26;;;;;;;17.02;6.03;;;9.10;99.90;;;;;;5035516;28;20072;-53
2024/02/29 10:38:55;;;;;;;11.93;6.97;;;9.00;99.90;;;;;;5037913;28;20428;-53
2024/02/29 10:41:24;;;;;;;;;;;9.10;99.90;;;;;;5043106;28;20477;-43
2024/02/29 10:43:54;;;;;;;16.10;6.85;;;9.00;99.90;;;;;;5036833;28;19992;-40
2024/02/29 10:46:22;;;;;;;12.15;5.75;;;9.10;99.90;;;;;;5035550;28;20025;-39
2024/02/29 10:48:52;;;;;;;12.00;6.57;;;9.10;99.90;;;;;;5039813;28;20029;-44
2024/02/29 10:51:38;;;;;;;17.13;6.80;;;9.10;99.90;;;;;;5049466;28;20479;-43
2024/02/29 10:54:15;;;;;;;15.68;6.35;;;9.00;99.90;;;;;;5033774;28;20029;-47
2024/02/29 10:56:44;;;;;;;12.50;6.60;;;9.00;99.90;;;;;;5034435;28;20026;-40
2024/02/29 10:59:16;;;;;;;11.68;6.47;;;9.00;99.90;;;;;;5040901;28;20428;-41
2024/02/29 11:01:41;;;;;;;14.52;6.57;;;9.00;99.90;;;;;;5049477;28;20047;-43
2024/02/29 11:04:07;;;;;;;11.70;6.35;;;9.10;99.90;;;;;;5037124;28;20034;-40
2024/02/29 11:06:42;;;;;;;10.73;5.82;;;9.10;99.90;;;;;;5047381;28;20083;-42
2024/02/29 11:09:09;;;;;;;13.48;6.03;;;9.10;99.90;;;;;;5053661;28;20078;-43
2024/02/29 11:11:35;;;;;;;9.82;5.88;;;9.10;99.90;;;;;;5053790;28;20473;-41
2024/02/29 11:14:11;;;;;;;15.00;6.32;;;9.20;99.90;;;;;;5051287;28;20147;-40
2024/02/29 11:16:45;;;;;;;12.60;7.00;;;9.20;99.90;;;;;;5053066;28;20504;-40
2024/02/29 11:19:18;;;;;;;9.40;6.25;;;9.20;99.90;;;;;;5053454;28;20501;-39
2024/02/29 11:21:44;;;;;;;15.60;6.53;;;9.20;99.90;;;;;;5040085;28;20563;-39
2024/02/29 11:24:17;;;;;;;14.23;6.70;;;9.20;99.90;;;;;;5031816;28;20126;-42
2024/02/29 11:26:43;;;;;;;12.93;6.03;;;9.20;99.90;;;;;;5033495;28;20030;-39
2024/02/29 11:29:20;;;;;;;11.20;5.72;;;9.20;99.90;;;;;;5026937;28;20489;-39
2024/02/29 11:31:48;;;;;;;10.65;6.30;;;9.30;99.90;;;;;;5033433;28;20471;-43
2024/02/29 11:34:19;;;;;;;16.30;7.05;;;9.30;99.90;;;;;;5042400;28;20496;-42
2024/02/29 11:36:47;;;;;;;12.23;6.10;;;9.30;99.90;;;;;;5046163;28;20040;-39
2024/02/29 11:39:17;;;;;;;12.38;6.55;;;9.30;99.90;;;;;;5053087;28;20136;-37
2024/02/29 11:41:43;;;;;;;17.70;6.40;;;9.30;99.90;;;;;;5036929;28;20032;-39
2024/02/29 11:44:09;;;;;;;10.07;6.32;;;9.30;99.90;;;;;;5033017;28;20029;-38
2024/02/29 11:46:44;;;;;;;12.13;6.70;;;9.30;99.90;;;;;;5033361;28;20386;-38
2024/02/29 11:49:13;;;;;;;16.20;6.90;;;9.30;99.90;;;;;;5032991;28;20376;-40
2024/02/29 11:51:40;;;;;;;12.27;7.55;;;9.40;99.90;;;;;;5050377;28;20017;-54
2024/02/29 11:54:06;;;;;;;16.88;7.57;;;9.40;99.90;;;;;;5047590;28;20040;-49
2024/02/29 11:56:31;;;;;;;15.32;7.72;;;9.40;99.90;;;;;;5032973;28;20478;-56
2024/02/29 11:59:02;;;;;;;12.18;6.13;;;9.50;99.90;;;;;;5032889;28;20052;-52
2024/02/29 12:01:28;;;;;;;13.77;6.55;;;9.50;99.90;;;;;;5032851;28;20474;-49
2024/02/29 12:03:54;;;;;;;17.50;7.57;;;9.50;99.90;;;;;;5033200;28;20037;-52
2024/02/29 12:06:20;;;;;;;13.45;7.30;;;9.50;99.90;;;;;;5032685;28;20029;-52
2024/02/29 12:08:46;;;;;;;16.23;7.10;;;9.40;99.90;;;;;;5033003;28;20486;-52
2024/02/29 12:11:12;;;;;;;10.98;5.82;;;9.40;99.90;;;;;;5042846;28;20040;-50
2024/02/29 12:13:39;;;;;;;13.50;6.65;;;9.50;99.90;;;;;;5052803;28;20102;-48
2024/02/29 12:16:05;;;;;;;11.73;6.60;;;9.50;99.90;;;;;;5050585;28;20564;-49
2024/02/29 12:18:34;;;;;;;11.23;6.55;;;9.50;99.90;;;;;;5050598;28;20477;-48
2024/02/29 12:21:00;;;;;;;15.52;7.05;;;9.60;99.90;;;;;;5033077;28;20105;-49
2024/02/29 12:23:30;;;;;;;10.60;6.60;;;9.50;99.90;;;;;;5032334;28;20481;-53
2024/02/29 12:26:07;;;;;;;13.35;6.10;;;9.50;99.90;;;;;;5032577;28;20382;-51
2024/02/29 12:28:32;;;;;;;14.00;5.53;;;9.60;99.90;;;;;;5032382;28;20459;-53
2024/02/29 12:30:58;;;;;;;10.77;5.65;;;9.60;99.90;;;;;;5032526;28;20053;-53
2024/02/29 12:33:24;;;;;;;12.02;5.05;;;9.60;99.90;;;;;;5035890;28;20013;-53
2024/02/29 12:35:52;;;;;;;12.05;5.82;;;9.60;99.90;;;;;;5039747;28;20083;-52
2024/02/29 12:38:21;;;;;;;11.48;5.70;;;9.60;99.90;;;;;;5036126;28;20482;-50
2024/02/29 12:40:51;;;;;;;10.95;5.53;;;9.60;99.90;;;;;;5032327;28;20029;-51
2024/02/29 12:43:17;;;;;;;7.97;5.72;;;9.60;99.90;;;;;;5032149;28;20036;-52